sensor_id;sensor_type;location;lat;lon;timestamp;P1;durP1;ratioP1;P2;durP2;ratioP2
57107;SDS011;42987;52.916;6.542;2022-10-14T00:01:05;568.85;;;48.38;;
57107;SDS011;42987;52.916;6.542;2022-10-14T00:03:33;302.83;;;53.35;;
57107;SDS011;42987;52.916;6.542;2022-10-14T00:06:04;105.95;;;38.38;;
57107;SDS011;42987;52.916;6.542;2022-10-14T00:08:38;52.97;;;33.40;;
57107;SDS011;42987;52.916;6.542;2022-10-14T00:11:05;40.22;;;25.95;;
57107;SDS011;42987;52.916;6.542;2022-10-14T00:13:33;133.57;;;30.42;;
57107;SDS011;42987;52.916;6.542;2022-10-14T00:15:59;180.70;;;31.00;;
57107;SDS011;42987;52.916;6.542;2022-10-14T00:18:25;31.13;;;26.13;;
57107;SDS011;42987;52.916;6.542;2022-10-14T00:20:54;74.20;;;28.58;;
57107;SDS011;42987;52.916;6.542;2022-10-14T00:23:21;126.38;;;30.33;;
57107;SDS011;42987;52.916;6.542;2022-10-14T00:25:47;580.47;;;54.60;;
57107;SDS011;42987;52.916;6.542;2022-10-14T00:28:12;389.90;;;36.35;;
57107;SDS011;42987;52.916;6.542;2022-10-14T00:30:38;543.08;;;52.63;;
57107;SDS011;42987;52.916;6.542;2022-10-14T00:33:04;302.65;;;28.70;;
57107;SDS011;42987;52.916;6.542;2022-10-14T00:35:30;39.58;;;14.98;;
57107;SDS011;42987;52.916;6.542;2022-10-14T00:37:57;127.28;;;16.85;;
57107;SDS011;42987;52.916;6.542;2022-10-14T00:40:26;196.53;;;23.47;;
57107;SDS011;42987;52.916;6.542;2022-10-14T00:42:52;118.80;;;23.10;;
57107;SDS011;42987;52.916;6.542;2022-10-14T00:45:21;18.00;;;16.30;;
57107;SDS011;42987;52.916;6.542;2022-10-14T00:47:48;21.00;;;18.80;;
57107;SDS011;42987;52.916;6.542;2022-10-14T00:50:15;21.92;;;19.70;;
57107;SDS011;42987;52.916;6.542;2022-10-14T00:52:42;23.05;;;20.70;;
57107;SDS011;42987;52.916;6.542;2022-10-14T00:55:10;37.80;;;25.17;;
57107;SDS011;42987;52.916;6.542;2022-10-14T00:57:41;32.00;;;25.98;;
57107;SDS011;42987;52.916;6.542;2022-10-14T01:00:12;30.60;;;27.00;;
57107;SDS011;42987;52.916;6.542;2022-10-14T01:02:40;31.80;;;27.67;;
57107;SDS011;42987;52.916;6.542;2022-10-14T01:05:07;204.10;;;36.10;;
57107;SDS011;42987;52.916;6.542;2022-10-14T01:10:20;70.18;;;30.42;;
57107;SDS011;42987;52.916;6.542;2022-10-14T01:20:54;56.53;;;27.52;;
57107;SDS011;42987;52.916;6.542;2022-10-14T01:32:43;92.63;;;31.08;;
57107;SDS011;42987;52.916;6.542;2022-10-14T01:37:54;302.23;;;51.25;;
57107;SDS011;42987;52.916;6.542;2022-10-14T01:43:11;30.90;;;26.13;;
57107;SDS011;42987;52.916;6.542;2022-10-14T01:45:39;33.13;;;25.90;;
57107;SDS011;42987;52.916;6.542;2022-10-14T01:48:08;45.20;;;27.25;;
57107;SDS011;42987;52.916;6.542;2022-10-14T01:50:35;39.78;;;27.85;;
57107;SDS011;42987;52.916;6.542;2022-10-14T01:53:05;49.20;;;30.95;;
57107;SDS011;42987;52.916;6.542;2022-10-14T01:55:35;296.85;;;53.00;;
57107;SDS011;42987;52.916;6.542;2022-10-14T01:58:05;45.80;;;27.88;;
57107;SDS011;42987;52.916;6.542;2022-10-14T02:00:32;66.57;;;29.83;;
57107;SDS011;42987;52.916;6.542;2022-10-14T02:02:58;85.63;;;30.17;;
57107;SDS011;42987;52.916;6.542;2022-10-14T02:07:57;86.88;;;30.90;;
57107;SDS011;42987;52.916;6.542;2022-10-14T02:13:28;83.38;;;29.63;;
57107;SDS011;42987;52.916;6.542;2022-10-14T02:18:39;98.28;;;27.77;;
57107;SDS011;42987;52.916;6.542;2022-10-14T02:23:53;115.50;;;28.50;;
57107;SDS011;42987;52.916;6.542;2022-10-14T02:26:40;59.97;;;23.35;;
57107;SDS011;42987;52.916;6.542;2022-10-14T02:29:09;199.05;;;35.28;;
57107;SDS011;42987;52.916;6.542;2022-10-14T02:31:36;42.90;;;21.65;;
57107;SDS011;42987;52.916;6.542;2022-10-14T02:34:04;54.17;;;22.30;;
57107;SDS011;42987;52.916;6.542;2022-10-14T02:36:35;51.78;;;21.50;;
57107;SDS011;42987;52.916;6.542;2022-10-14T02:39:02;46.25;;;21.00;;
57107;SDS011;42987;52.916;6.542;2022-10-14T02:41:32;70.13;;;21.75;;
57107;SDS011;42987;52.916;6.542;2022-10-14T02:44:01;49.55;;;18.98;;
57107;SDS011;42987;52.916;6.542;2022-10-14T02:46:30;63.35;;;18.95;;
57107;SDS011;42987;52.916;6.542;2022-10-14T02:48:56;113.40;;;21.83;;
57107;SDS011;42987;52.916;6.542;2022-10-14T02:51:22;90.25;;;20.65;;
57107;SDS011;42987;52.916;6.542;2022-10-14T02:53:48;98.90;;;23.50;;
57107;SDS011;42987;52.916;6.542;2022-10-14T02:56:14;54.63;;;18.70;;
57107;SDS011;42987;52.916;6.542;2022-10-14T02:58:41;81.50;;;19.27;;
57107;SDS011;42987;52.916;6.542;2022-10-14T03:01:07;70.15;;;21.80;;
57107;SDS011;42987;52.916;6.542;2022-10-14T03:03:33;58.15;;;19.15;;
57107;SDS011;42987;52.916;6.542;2022-10-14T03:05:59;61.90;;;19.65;;
57107;SDS011;42987;52.916;6.542;2022-10-14T03:08:24;165.48;;;26.40;;
57107;SDS011;42987;52.916;6.542;2022-10-14T03:10:50;106.63;;;22.27;;
57107;SDS011;42987;52.916;6.542;2022-10-14T03:13:16;52.67;;;20.08;;
57107;SDS011;42987;52.916;6.542;2022-10-14T03:15:42;79.55;;;16.92;;
57107;SDS011;42987;52.916;6.542;2022-10-14T03:18:07;79.55;;;16.90;;
57107;SDS011;42987;52.916;6.542;2022-10-14T03:20:33;128.80;;;18.15;;
57107;SDS011;42987;52.916;6.542;2022-10-14T03:22:59;46.05;;;16.88;;
57107;SDS011;42987;52.916;6.542;2022-10-14T03:25:25;86.25;;;16.30;;
57107;SDS011;42987;52.916;6.542;2022-10-14T03:27:52;94.18;;;17.02;;
57107;SDS011;42987;52.916;6.542;2022-10-14T03:30:17;113.40;;;19.63;;
57107;SDS011;42987;52.916;6.542;2022-10-14T03:32:43;140.27;;;21.50;;
57107;SDS011;42987;52.916;6.542;2022-10-14T03:35:09;117.30;;;20.17;;
57107;SDS011;42987;52.916;6.542;2022-10-14T03:37:34;88.55;;;18.73;;
57107;SDS011;42987;52.916;6.542;2022-10-14T03:40:00;100.07;;;21.27;;
57107;SDS011;42987;52.916;6.542;2022-10-14T03:42:26;123.82;;;22.95;;
57107;SDS011;42987;52.916;6.542;2022-10-14T03:44:52;143.73;;;25.80;;
57107;SDS011;42987;52.916;6.542;2022-10-14T03:47:17;126.20;;;26.40;;
57107;SDS011;42987;52.916;6.542;2022-10-14T03:49:43;81.03;;;23.70;;
57107;SDS011;42987;52.916;6.542;2022-10-14T03:52:09;134.10;;;26.63;;
57107;SDS011;42987;52.916;6.542;2022-10-14T03:54:34;123.55;;;26.80;;
57107;SDS011;42987;52.916;6.542;2022-10-14T03:57:00;205.68;;;35.75;;
57107;SDS011;42987;52.916;6.542;2022-10-14T03:59:26;166.07;;;33.75;;
57107;SDS011;42987;52.916;6.542;2022-10-14T04:01:52;133.90;;;34.00;;
57107;SDS011;42987;52.916;6.542;2022-10-14T04:04:18;153.23;;;34.53;;
57107;SDS011;42987;52.916;6.542;2022-10-14T04:06:44;155.55;;;34.70;;
57107;SDS011;42987;52.916;6.542;2022-10-14T04:09:09;202.82;;;39.35;;
57107;SDS011;42987;52.916;6.542;2022-10-14T04:11:35;100.68;;;31.75;;
57107;SDS011;42987;52.916;6.542;2022-10-14T04:14:01;141.02;;;35.08;;
57107;SDS011;42987;52.916;6.542;2022-10-14T04:16:27;141.07;;;36.28;;
57107;SDS011;42987;52.916;6.542;2022-10-14T04:18:56;95.90;;;33.42;;
57107;SDS011;42987;52.916;6.542;2022-10-14T04:21:22;94.50;;;33.53;;
57107;SDS011;42987;52.916;6.542;2022-10-14T04:23:49;113.97;;;34.45;;
57107;SDS011;42987;52.916;6.542;2022-10-14T04:26:15;89.35;;;32.50;;
57107;SDS011;42987;52.916;6.542;2022-10-14T04:28:41;195.10;;;38.80;;
57107;SDS011;42987;52.916;6.542;2022-10-14T04:31:07;128.40;;;34.80;;
57107;SDS011;42987;52.916;6.542;2022-10-14T04:33:33;112.25;;;31.90;;
57107;SDS011;42987;52.916;6.542;2022-10-14T04:36:00;146.20;;;36.17;;
57107;SDS011;42987;52.916;6.542;2022-10-14T04:38:31;85.38;;;31.50;;
57107;SDS011;42987;52.916;6.542;2022-10-14T04:40:57;75.38;;;30.38;;
57107;SDS011;42987;52.916;6.542;2022-10-14T04:43:24;115.80;;;32.75;;
57107;SDS011;42987;52.916;6.542;2022-10-14T04:45:49;119.30;;;34.58;;
57107;SDS011;42987;52.916;6.542;2022-10-14T04:48:15;96.43;;;33.33;;
57107;SDS011;42987;52.916;6.542;2022-10-14T04:50:42;131.80;;;36.58;;
57107;SDS011;42987;52.916;6.542;2022-10-14T04:53:08;111.25;;;34.70;;
57107;SDS011;42987;52.916;6.542;2022-10-14T04:55:34;120.75;;;36.50;;
57107;SDS011;42987;52.916;6.542;2022-10-14T04:58:01;106.85;;;34.80;;
57107;SDS011;42987;52.916;6.542;2022-10-14T05:00:27;102.32;;;34.08;;
57107;SDS011;42987;52.916;6.542;2022-10-14T05:02:55;146.82;;;36.10;;
57107;SDS011;42987;52.916;6.542;2022-10-14T05:05:21;194.23;;;38.53;;
57107;SDS011;42987;52.916;6.542;2022-10-14T05:07:47;154.25;;;39.45;;
57107;SDS011;42987;52.916;6.542;2022-10-14T05:10:12;89.85;;;35.13;;
57107;SDS011;42987;52.916;6.542;2022-10-14T05:12:38;143.15;;;38.05;;
57107;SDS011;42987;52.916;6.542;2022-10-14T05:15:04;215.13;;;41.97;;
57107;SDS011;42987;52.916;6.542;2022-10-14T05:17:31;169.35;;;41.08;;
57107;SDS011;42987;52.916;6.542;2022-10-14T05:19:57;178.05;;;38.83;;
57107;SDS011;42987;52.916;6.542;2022-10-14T05:22:23;207.75;;;42.70;;
57107;SDS011;42987;52.916;6.542;2022-10-14T05:24:49;161.70;;;41.15;;
57107;SDS011;42987;52.916;6.542;2022-10-14T05:27:15;190.95;;;41.03;;
57107;SDS011;42987;52.916;6.542;2022-10-14T05:29:41;214.90;;;43.65;;
57107;SDS011;42987;52.916;6.542;2022-10-14T05:32:07;432.48;;;51.78;;
57107;SDS011;42987;52.916;6.542;2022-10-14T05:34:33;166.70;;;39.30;;
57107;SDS011;42987;52.916;6.542;2022-10-14T05:37:00;186.45;;;40.25;;
57107;SDS011;42987;52.916;6.542;2022-10-14T05:39:26;173.10;;;38.42;;
57107;SDS011;42987;52.916;6.542;2022-10-14T05:41:52;158.38;;;39.00;;
57107;SDS011;42987;52.916;6.542;2022-10-14T05:44:17;133.93;;;35.13;;
57107;SDS011;42987;52.916;6.542;2022-10-14T05:46:43;200.88;;;39.47;;
57107;SDS011;42987;52.916;6.542;2022-10-14T05:49:09;179.80;;;39.28;;
57107;SDS011;42987;52.916;6.542;2022-10-14T05:51:35;148.35;;;37.85;;
57107;SDS011;42987;52.916;6.542;2022-10-14T05:54:02;134.15;;;36.67;;
57107;SDS011;42987;52.916;6.542;2022-10-14T05:56:31;159.32;;;36.72;;
57107;SDS011;42987;52.916;6.542;2022-10-14T05:58:57;194.93;;;41.38;;
57107;SDS011;42987;52.916;6.542;2022-10-14T06:01:22;171.88;;;40.05;;
57107;SDS011;42987;52.916;6.542;2022-10-14T06:03:49;151.52;;;39.10;;
57107;SDS011;42987;52.916;6.542;2022-10-14T06:06:16;104.90;;;34.08;;
57107;SDS011;42987;52.916;6.542;2022-10-14T06:08:42;369.20;;;50.30;;
57107;SDS011;42987;52.916;6.542;2022-10-14T06:11:09;130.32;;;38.72;;
57107;SDS011;42987;52.916;6.542;2022-10-14T06:13:36;128.63;;;36.28;;
57107;SDS011;42987;52.916;6.542;2022-10-14T06:16:05;154.95;;;41.65;;
57107;SDS011;42987;52.916;6.542;2022-10-14T06:18:33;147.77;;;43.65;;
57107;SDS011;42987;52.916;6.542;2022-10-14T06:20:59;126.57;;;42.83;;
57107;SDS011;42987;52.916;6.542;2022-10-14T06:23:25;151.77;;;45.25;;
57107;SDS011;42987;52.916;6.542;2022-10-14T06:25:51;119.97;;;42.17;;
57107;SDS011;42987;52.916;6.542;2022-10-14T06:28:17;354.70;;;61.95;;
57107;SDS011;42987;52.916;6.542;2022-10-14T06:30:50;121.53;;;43.78;;
57107;SDS011;42987;52.916;6.542;2022-10-14T06:33:17;126.18;;;45.72;;
57107;SDS011;42987;52.916;6.542;2022-10-14T06:35:43;120.43;;;45.35;;
57107;SDS011;42987;52.916;6.542;2022-10-14T06:38:09;133.85;;;45.95;;
57107;SDS011;42987;52.916;6.542;2022-10-14T06:40:34;219.15;;;52.45;;
57107;SDS011;42987;52.916;6.542;2022-10-14T06:43:01;313.65;;;64.75;;
57107;SDS011;42987;52.916;6.542;2022-10-14T06:45:27;224.93;;;55.65;;
57107;SDS011;42987;52.916;6.542;2022-10-14T06:47:52;190.25;;;54.33;;
57107;SDS011;42987;52.916;6.542;2022-10-14T06:50:18;192.95;;;56.92;;
57107;SDS011;42987;52.916;6.542;2022-10-14T06:52:44;170.32;;;54.97;;
57107;SDS011;42987;52.916;6.542;2022-10-14T06:55:10;137.80;;;52.40;;
57107;SDS011;42987;52.916;6.542;2022-10-14T06:57:36;144.38;;;52.85;;
57107;SDS011;42987;52.916;6.542;2022-10-14T07:00:03;145.02;;;53.40;;
57107;SDS011;42987;52.916;6.542;2022-10-14T07:02:30;274.33;;;62.60;;
57107;SDS011;42987;52.916;6.542;2022-10-14T07:04:56;156.02;;;54.08;;
57107;SDS011;42987;52.916;6.542;2022-10-14T07:07:21;127.30;;;48.47;;
57107;SDS011;42987;52.916;6.542;2022-10-14T07:09:47;107.30;;;46.90;;
57107;SDS011;42987;52.916;6.542;2022-10-14T07:12:13;97.30;;;42.30;;
57107;SDS011;42987;52.916;6.542;2022-10-14T07:14:39;114.72;;;45.95;;
57107;SDS011;42987;52.916;6.542;2022-10-14T07:17:08;98.47;;;43.92;;
57107;SDS011;42987;52.916;6.542;2022-10-14T07:19:34;108.75;;;44.90;;
57107;SDS011;42987;52.916;6.542;2022-10-14T07:21:59;87.65;;;40.92;;
57107;SDS011;42987;52.916;6.542;2022-10-14T07:24:25;76.85;;;40.60;;
57107;SDS011;42987;52.916;6.542;2022-10-14T07:26:51;80.43;;;41.03;;
57107;SDS011;42987;52.916;6.542;2022-10-14T07:29:17;82.18;;;41.63;;
57107;SDS011;42987;52.916;6.542;2022-10-14T07:31:43;199.18;;;47.70;;
57107;SDS011;42987;52.916;6.542;2022-10-14T07:34:09;69.95;;;38.75;;
57107;SDS011;42987;52.916;6.542;2022-10-14T07:36:35;83.75;;;41.50;;
57107;SDS011;42987;52.916;6.542;2022-10-14T07:39:01;87.72;;;42.22;;
57107;SDS011;42987;52.916;6.542;2022-10-14T07:41:27;68.53;;;38.17;;
57107;SDS011;42987;52.916;6.542;2022-10-14T07:43:56;68.63;;;37.17;;
57107;SDS011;42987;52.916;6.542;2022-10-14T07:46:29;60.47;;;34.03;;
57107;SDS011;42987;52.916;6.542;2022-10-14T07:49:01;83.75;;;39.75;;
57107;SDS011;42987;52.916;6.542;2022-10-14T07:51:32;71.78;;;37.08;;
57107;SDS011;42987;52.916;6.542;2022-10-14T07:53:58;65.32;;;35.53;;
57107;SDS011;42987;52.916;6.542;2022-10-14T07:56:25;72.93;;;37.15;;
57107;SDS011;42987;52.916;6.542;2022-10-14T07:58:52;62.10;;;34.47;;
57107;SDS011;42987;52.916;6.542;2022-10-14T08:01:18;81.60;;;39.63;;
57107;SDS011;42987;52.916;6.542;2022-10-14T08:03:45;71.13;;;37.95;;
57107;SDS011;42987;52.916;6.542;2022-10-14T08:06:12;72.05;;;39.17;;
57107;SDS011;42987;52.916;6.542;2022-10-14T08:08:38;77.85;;;40.17;;
57107;SDS011;42987;52.916;6.542;2022-10-14T08:13:32;81.65;;;42.30;;
57107;SDS011;42987;52.916;6.542;2022-10-14T08:15:59;66.65;;;38.03;;
57107;SDS011;42987;52.916;6.542;2022-10-14T08:18:25;59.53;;;36.08;;
57107;SDS011;42987;52.916;6.542;2022-10-14T08:20:52;59.53;;;36.28;;
57107;SDS011;42987;52.916;6.542;2022-10-14T08:23:17;73.50;;;40.28;;
57107;SDS011;42987;52.916;6.542;2022-10-14T08:25:43;64.45;;;38.28;;
57107;SDS011;42987;52.916;6.542;2022-10-14T08:28:11;63.30;;;38.13;;
57107;SDS011;42987;52.916;6.542;2022-10-14T08:30:36;61.58;;;38.13;;
57107;SDS011;42987;52.916;6.542;2022-10-14T08:33:02;95.50;;;43.08;;
57107;SDS011;42987;52.916;6.542;2022-10-14T08:35:28;68.15;;;40.03;;
57107;SDS011;42987;52.916;6.542;2022-10-14T08:37:55;65.00;;;39.20;;
57107;SDS011;42987;52.916;6.542;2022-10-14T08:40:22;69.10;;;39.25;;
57107;SDS011;42987;52.916;6.542;2022-10-14T08:45:31;77.25;;;40.95;;
57107;SDS011;42987;52.916;6.542;2022-10-14T08:48:02;84.10;;;41.33;;
57107;SDS011;42987;52.916;6.542;2022-10-14T08:50:40;82.95;;;41.75;;
57107;SDS011;42987;52.916;6.542;2022-10-14T08:55:43;73.15;;;41.30;;
57107;SDS011;42987;52.916;6.542;2022-10-14T08:58:22;79.75;;;44.13;;
57107;SDS011;42987;52.916;6.542;2022-10-14T09:00:56;85.15;;;42.58;;
57107;SDS011;42987;52.916;6.542;2022-10-14T09:03:42;71.32;;;39.67;;
57107;SDS011;42987;52.916;6.542;2022-10-14T09:06:18;72.32;;;41.70;;
57107;SDS011;42987;52.916;6.542;2022-10-14T09:08:53;76.03;;;42.47;;
57107;SDS011;42987;52.916;6.542;2022-10-14T09:13:54;69.78;;;40.92;;
57107;SDS011;42987;52.916;6.542;2022-10-14T09:16:23;96.97;;;46.88;;
57107;SDS011;42987;52.916;6.542;2022-10-14T09:19:02;93.45;;;45.85;;
57107;SDS011;42987;52.916;6.542;2022-10-14T09:21:52;108.05;;;48.28;;
57107;SDS011;42987;52.916;6.542;2022-10-14T09:24:30;71.15;;;39.65;;
57107;SDS011;42987;52.916;6.542;2022-10-14T09:27:07;115.90;;;48.20;;
57107;SDS011;42987;52.916;6.542;2022-10-14T09:29:49;135.45;;;48.75;;
57107;SDS011;42987;52.916;6.542;2022-10-14T09:32:27;101.15;;;46.50;;
57107;SDS011;42987;52.916;6.542;2022-10-14T09:35:21;70.38;;;39.08;;
57107;SDS011;42987;52.916;6.542;2022-10-14T09:37:53;69.57;;;38.88;;
57107;SDS011;42987;52.916;6.542;2022-10-14T09:45:25;69.53;;;38.55;;
57107;SDS011;42987;52.916;6.542;2022-10-14T09:48:01;88.72;;;41.53;;
57107;SDS011;42987;52.916;6.542;2022-10-14T09:50:35;81.03;;;39.35;;
57107;SDS011;42987;52.916;6.542;2022-10-14T09:53:14;85.80;;;41.53;;
57107;SDS011;42987;52.916;6.542;2022-10-14T09:55:52;81.78;;;39.70;;
57107;SDS011;42987;52.916;6.542;2022-10-14T10:01:14;79.18;;;38.80;;
57107;SDS011;42987;52.916;6.542;2022-10-14T10:03:45;83.30;;;38.67;;
57107;SDS011;42987;52.916;6.542;2022-10-14T10:06:13;82.60;;;38.42;;
57107;SDS011;42987;52.916;6.542;2022-10-14T10:11:52;72.93;;;37.83;;
57107;SDS011;42987;52.916;6.542;2022-10-14T10:16:46;88.60;;;39.40;;
57107;SDS011;42987;52.916;6.542;2022-10-14T10:19:22;79.00;;;37.85;;
57107;SDS011;42987;52.916;6.542;2022-10-14T10:21:51;85.18;;;39.65;;
57107;SDS011;42987;52.916;6.542;2022-10-14T10:24:17;90.18;;;40.72;;
57107;SDS011;42987;52.916;6.542;2022-10-14T10:26:46;97.65;;;40.42;;
57107;SDS011;42987;52.916;6.542;2022-10-14T10:29:33;95.47;;;39.53;;
57107;SDS011;42987;52.916;6.542;2022-10-14T10:37:21;75.30;;;34.45;;
57107;SDS011;42987;52.916;6.542;2022-10-14T10:43:12;76.32;;;34.00;;
57107;SDS011;42987;52.916;6.542;2022-10-14T10:51:13;63.60;;;30.55;;
57107;SDS011;42987;52.916;6.542;2022-10-14T10:54:05;58.25;;;28.83;;
57107;SDS011;42987;52.916;6.542;2022-10-14T10:56:39;62.38;;;28.90;;
57107;SDS011;42987;52.916;6.542;2022-10-14T11:05:55;50.75;;;25.38;;
57107;SDS011;42987;52.916;6.542;2022-10-14T11:11:26;48.28;;;24.27;;
57107;SDS011;42987;52.916;6.542;2022-10-14T11:14:36;45.60;;;25.00;;
57107;SDS011;42987;52.916;6.542;2022-10-14T11:17:29;58.80;;;27.30;;
57107;SDS011;42987;52.916;6.542;2022-10-14T11:20:16;50.50;;;25.40;;
57107;SDS011;42987;52.916;6.542;2022-10-14T11:25:46;48.67;;;24.83;;
57107;SDS011;42987;52.916;6.542;2022-10-14T11:28:18;45.03;;;24.63;;
57107;SDS011;42987;52.916;6.542;2022-10-14T11:31:02;45.55;;;24.02;;
57107;SDS011;42987;52.916;6.542;2022-10-14T11:42:24;52.28;;;27.50;;
57107;SDS011;42987;52.916;6.542;2022-10-14T11:44:59;54.15;;;28.50;;
57107;SDS011;42987;52.916;6.542;2022-10-14T11:47:33;57.17;;;28.90;;
57107;SDS011;42987;52.916;6.542;2022-10-14T11:50:03;58.63;;;31.15;;
57107;SDS011;42987;52.916;6.542;2022-10-14T11:52:37;124.65;;;39.20;;
57107;SDS011;42987;52.916;6.542;2022-10-14T11:55:12;82.40;;;34.65;;
57107;SDS011;42987;52.916;6.542;2022-10-14T11:57:48;68.25;;;35.00;;
57107;SDS011;42987;52.916;6.542;2022-10-14T12:00:19;80.18;;;37.25;;
57107;SDS011;42987;52.916;6.542;2022-10-14T12:08:54;119.10;;;45.20;;
57107;SDS011;42987;52.916;6.542;2022-10-14T12:14:31;90.68;;;46.05;;
57107;SDS011;42987;52.916;6.542;2022-10-14T12:17:21;92.22;;;45.25;;
57107;SDS011;42987;52.916;6.542;2022-10-14T12:19:53;93.07;;;45.00;;
57107;SDS011;42987;52.916;6.542;2022-10-14T12:22:21;103.03;;;48.42;;
57107;SDS011;42987;52.916;6.542;2022-10-14T12:24:50;129.60;;;50.40;;
57107;SDS011;42987;52.916;6.542;2022-10-14T12:27:19;112.20;;;51.60;;
57107;SDS011;42987;52.916;6.542;2022-10-14T12:29:48;91.55;;;45.95;;
57107;SDS011;42987;52.916;6.542;2022-10-14T12:34:44;96.30;;;47.95;;
57107;SDS011;42987;52.916;6.542;2022-10-14T12:42:34;111.47;;;50.58;;
57107;SDS011;42987;52.916;6.542;2022-10-14T12:45:15;132.95;;;54.38;;
57107;SDS011;42987;52.916;6.542;2022-10-14T12:47:46;104.40;;;49.88;;
57107;SDS011;42987;52.916;6.542;2022-10-14T12:50:26;104.25;;;49.95;;
57107;SDS011;42987;52.916;6.542;2022-10-14T12:52:55;99.13;;;48.75;;
57107;SDS011;42987;52.916;6.542;2022-10-14T12:55:23;96.50;;;49.13;;
57107;SDS011;42987;52.916;6.542;2022-10-14T12:57:58;97.45;;;49.10;;
57107;SDS011;42987;52.916;6.542;2022-10-14T13:00:27;152.65;;;56.35;;
57107;SDS011;42987;52.916;6.542;2022-10-14T13:03:02;98.88;;;47.67;;
57107;SDS011;42987;52.916;6.542;2022-10-14T13:05:38;102.35;;;48.85;;
57107;SDS011;42987;52.916;6.542;2022-10-14T13:16:09;58.83;;;37.72;;
57107;SDS011;42987;52.916;6.542;2022-10-14T13:24:12;45.83;;;32.92;;
57107;SDS011;42987;52.916;6.542;2022-10-14T13:32:04;47.50;;;31.42;;
57107;SDS011;42987;52.916;6.542;2022-10-14T13:39:56;28.27;;;23.98;;
57107;SDS011;42987;52.916;6.542;2022-10-14T13:42:30;29.92;;;25.25;;
57107;SDS011;42987;52.916;6.542;2022-10-14T13:45:05;34.53;;;26.33;;
57107;SDS011;42987;52.916;6.542;2022-10-14T13:47:36;26.67;;;23.88;;
57107;SDS011;42987;52.916;6.542;2022-10-14T13:50:07;28.25;;;24.73;;
57107;SDS011;42987;52.916;6.542;2022-10-14T13:52:35;26.30;;;23.60;;
57107;SDS011;42987;52.916;6.542;2022-10-14T13:55:15;26.80;;;23.55;;
57107;SDS011;42987;52.916;6.542;2022-10-14T13:57:42;25.15;;;22.48;;
57107;SDS011;42987;52.916;6.542;2022-10-14T14:00:33;25.60;;;22.92;;
57107;SDS011;42987;52.916;6.542;2022-10-14T14:03:20;24.10;;;21.55;;
57107;SDS011;42987;52.916;6.542;2022-10-14T14:05:52;23.63;;;21.33;;
57107;SDS011;42987;52.916;6.542;2022-10-14T14:08:31;23.65;;;21.25;;
57107;SDS011;42987;52.916;6.542;2022-10-14T14:11:01;23.35;;;21.02;;
57107;SDS011;42987;52.916;6.542;2022-10-14T14:13:35;25.75;;;23.15;;
57107;SDS011;42987;52.916;6.542;2022-10-14T14:16:20;24.63;;;22.02;;
57107;SDS011;42987;52.916;6.542;2022-10-14T14:19:15;26.48;;;23.73;;
57107;SDS011;42987;52.916;6.542;2022-10-14T14:24:47;23.75;;;21.52;;
57107;SDS011;42987;52.916;6.542;2022-10-14T14:27:14;23.73;;;21.25;;
57107;SDS011;42987;52.916;6.542;2022-10-14T14:29:43;24.45;;;21.95;;
57107;SDS011;42987;52.916;6.542;2022-10-14T14:32:17;25.50;;;22.85;;
57107;SDS011;42987;52.916;6.542;2022-10-14T14:34:54;25.55;;;22.85;;
57107;SDS011;42987;52.916;6.542;2022-10-14T14:37:24;24.33;;;21.77;;
57107;SDS011;42987;52.916;6.542;2022-10-14T14:42:26;26.58;;;23.77;;
57107;SDS011;42987;52.916;6.542;2022-10-14T14:44:57;26.77;;;23.88;;
57107;SDS011;42987;52.916;6.542;2022-10-14T14:47:28;27.38;;;24.15;;
57107;SDS011;42987;52.916;6.542;2022-10-14T14:49:55;32.22;;;24.80;;
57107;SDS011;42987;52.916;6.542;2022-10-14T14:52:23;24.80;;;22.38;;
57107;SDS011;42987;52.916;6.542;2022-10-14T14:54:49;28.00;;;23.23;;
57107;SDS011;42987;52.916;6.542;2022-10-14T14:57:16;32.17;;;24.65;;
57107;SDS011;42987;52.916;6.542;2022-10-14T15:02:20;25.23;;;22.42;;
57107;SDS011;42987;52.916;6.542;2022-10-14T15:04:57;26.10;;;23.30;;
57107;SDS011;42987;52.916;6.542;2022-10-14T15:07:31;29.10;;;24.30;;
57107;SDS011;42987;52.916;6.542;2022-10-14T15:10:03;25.65;;;22.92;;
57107;SDS011;42987;52.916;6.542;2022-10-14T15:12:37;23.65;;;21.27;;
57107;SDS011;42987;52.916;6.542;2022-10-14T15:15:21;23.35;;;21.05;;
57107;SDS011;42987;52.916;6.542;2022-10-14T15:18:04;24.95;;;22.30;;
57107;SDS011;42987;52.916;6.542;2022-10-14T15:20:45;27.05;;;23.92;;
57107;SDS011;42987;52.916;6.542;2022-10-14T15:29:10;25.63;;;21.20;;
57107;SDS011;42987;52.916;6.542;2022-10-14T15:32:26;25.17;;;22.58;;
57107;SDS011;42987;52.916;6.542;2022-10-14T15:34:37;22.55;;;20.45;;
57107;SDS011;42987;52.916;6.542;2022-10-14T15:37:03;25.90;;;23.30;;
57107;SDS011;42987;52.916;6.542;2022-10-14T15:39:29;25.52;;;22.75;;
57107;SDS011;42987;52.916;6.542;2022-10-14T15:41:55;31.55;;;25.88;;
57107;SDS011;42987;52.916;6.542;2022-10-14T15:44:21;25.75;;;22.90;;
57107;SDS011;42987;52.916;6.542;2022-10-14T15:46:46;29.08;;;25.08;;
57107;SDS011;42987;52.916;6.542;2022-10-14T15:49:37;38.88;;;26.88;;
57107;SDS011;42987;52.916;6.542;2022-10-14T15:52:06;28.17;;;24.77;;
57107;SDS011;42987;52.916;6.542;2022-10-14T15:54:34;31.58;;;26.10;;
57107;SDS011;42987;52.916;6.542;2022-10-14T15:57:00;64.07;;;32.15;;
57107;SDS011;42987;52.916;6.542;2022-10-14T15:59:26;47.72;;;29.58;;
57107;SDS011;42987;52.916;6.542;2022-10-14T16:01:52;26.15;;;22.00;;
57107;SDS011;42987;52.916;6.542;2022-10-14T16:04:18;25.00;;;22.35;;
57107;SDS011;42987;52.916;6.542;2022-10-14T16:09:21;27.15;;;22.15;;
57107;SDS011;42987;52.916;6.542;2022-10-14T16:11:47;44.38;;;26.38;;
57107;SDS011;42987;52.916;6.542;2022-10-14T16:14:21;24.42;;;21.83;;
57107;SDS011;42987;52.916;6.542;2022-10-14T16:16:51;23.25;;;20.77;;
57107;SDS011;42987;52.916;6.542;2022-10-14T16:19:17;24.50;;;21.73;;
57107;SDS011;42987;52.916;6.542;2022-10-14T16:21:43;22.25;;;20.05;;
57107;SDS011;42987;52.916;6.542;2022-10-14T16:24:13;31.52;;;23.70;;
57107;SDS011;42987;52.916;6.542;2022-10-14T16:26:44;24.75;;;21.30;;
57107;SDS011;42987;52.916;6.542;2022-10-14T16:29:12;34.53;;;24.80;;
57107;SDS011;42987;52.916;6.542;2022-10-14T16:31:38;28.95;;;23.38;;
57107;SDS011;42987;52.916;6.542;2022-10-14T16:34:04;23.50;;;21.08;;
57107;SDS011;42987;52.916;6.542;2022-10-14T16:36:30;26.33;;;22.90;;
57107;SDS011;42987;52.916;6.542;2022-10-14T16:38:56;74.07;;;31.40;;
57107;SDS011;42987;52.916;6.542;2022-10-14T16:41:21;55.22;;;29.40;;
57107;SDS011;42987;52.916;6.542;2022-10-14T16:43:47;52.78;;;24.58;;
57107;SDS011;42987;52.916;6.542;2022-10-14T16:46:13;28.45;;;21.98;;
57107;SDS011;42987;52.916;6.542;2022-10-14T16:48:39;23.98;;;19.60;;
57107;SDS011;42987;52.916;6.542;2022-10-14T16:51:05;19.25;;;16.88;;
57107;SDS011;42987;52.916;6.542;2022-10-14T16:53:31;26.25;;;16.80;;
57107;SDS011;42987;52.916;6.542;2022-10-14T16:56:13;13.23;;;11.82;;
57107;SDS011;42987;52.916;6.542;2022-10-14T16:59:02;10.50;;;9.45;;
57107;SDS011;42987;52.916;6.542;2022-10-14T17:01:30;17.50;;;13.13;;
57107;SDS011;42987;52.916;6.542;2022-10-14T17:03:56;19.80;;;14.10;;